Time;durP1;ratioP1;P1;durP2;ratioP2;P2;SDS_P1;SDS_P2;PMS_P1;PMS_P2;Temp;Humidity;BMP_temperature;BMP_pressure;BME280_temperature;BME280_humidity;BME280_pressure;Samples;Min_cycle;Max_cycle;Signal;HPM_P1;HPM_P2
2022/01/19 00:00:53;;;;;;;11.13;3.10;;;17.10;53.30;17.90;102364.00;;;;5049341;28;20170;-49
2022/01/19 00:03:19;;;;;;;6.27;2.77;;;17.10;53.60;17.90;102371.00;;;;5048808;28;20178;-48
2022/01/19 00:05:45;;;;;;;4.47;2.67;;;17.10;53.80;17.90;102371.00;;;;5048564;28;20266;-46
2022/01/19 00:08:16;;;;;;;3.70;3.03;;;17.10;53.80;17.90;102377.00;;;;5048482;28;20201;-49
2022/01/19 00:10:45;;;;;;;2.63;2.43;;;17.00;53.90;17.90;102373.00;;;;5048470;28;20154;-49
2022/01/19 00:13:11;;;;;;;3.90;3.00;;;17.10;53.90;17.90;102368.00;;;;5036232;28;20230;-49
2022/01/19 00:15:37;;;;;;;3.10;2.80;;;17.00;53.90;17.90;102371.00;;;;5028966;28;20205;-47
2022/01/19 00:18:02;;;;;;;3.20;2.90;;;17.00;53.70;17.90;102357.00;;;;5028971;28;20536;-49
2022/01/19 00:20:31;;;;;;;5.00;2.80;;;17.00;53.70;17.90;102364.00;;;;5027483;28;20171;-48
2022/01/19 00:22:57;;;;;;;4.00;2.73;;;17.00;53.60;17.90;102352.00;;;;5028902;28;20171;-48
2022/01/19 00:25:22;;;;;;;3.00;2.60;;;17.00;53.50;17.90;102326.00;;;;5034224;28;20708;-49
2022/01/19 00:27:48;;;;;;;2.83;2.63;;;16.90;53.40;17.90;102313.00;;;;5036050;28;20194;-48
2022/01/19 00:30:14;;;;;;;3.10;2.80;;;16.90;53.40;17.90;102289.00;;;;5032602;28;20159;-49
2022/01/19 00:32:40;;;;;;;3.03;2.73;;;16.90;53.50;17.90;102287.00;;;;5042708;28;20256;-47
2022/01/19 00:35:06;;;;;;;3.10;2.80;;;16.90;53.30;17.90;102275.00;;;;5036830;28;20163;-48
2022/01/19 00:37:32;;;;;;;3.07;2.80;;;16.80;53.30;17.80;102277.00;;;;5031884;28;20201;-49
2022/01/19 00:39:58;;;;;;;4.63;2.80;;;16.80;53.30;17.80;102287.00;;;;5030605;28;20633;-50
2022/01/19 00:42:23;;;;;;;3.00;2.70;;;16.80;53.30;17.80;102278.00;;;;5029195;28;20523;-48
2022/01/19 00:44:50;;;;;;;2.90;2.70;;;16.80;53.40;17.80;102280.00;;;;5027768;28;20179;-49
2022/01/19 00:47:16;;;;;;;3.20;2.80;;;16.70;53.40;17.80;102284.00;;;;5027007;28;20199;-48
2022/01/19 00:49:42;;;;;;;3.40;3.00;;;16.70;53.30;17.70;102278.00;;;;5028408;28;20183;-51
2022/01/19 00:52:09;;;;;;;4.27;2.80;;;16.70;53.30;17.70;102270.00;;;;5028400;28;20207;-48
2022/01/19 00:54:36;;;;;;;3.13;2.80;;;16.70;53.30;17.70;102273.00;;;;5028241;28;20820;-50
2022/01/19 00:57:02;;;;;;;3.80;3.00;;;16.70;53.30;17.70;102265.00;;;;5031406;28;20210;-49
2022/01/19 00:59:27;;;;;;;2.93;2.63;;;16.60;53.30;17.60;102258.00;;;;5030646;28;20634;-50
2022/01/19 01:01:53;;;;;;;2.80;2.50;;;16.60;53.20;17.60;102252.00;;;;5031488;28;20183;-46
2022/01/19 01:04:19;;;;;;;3.53;2.80;;;16.60;53.20;17.60;102247.00;;;;5040330;28;20245;-48
2022/01/19 01:06:44;;;;;;;3.10;2.80;;;16.60;53.20;17.60;102246.00;;;;5034982;28;20195;-49
2022/01/19 01:09:10;;;;;;;2.73;2.53;;;16.60;53.20;17.60;102236.00;;;;5030404;28;20178;-48
2022/01/19 01:11:46;;;;;;;3.13;2.80;;;16.50;53.20;17.60;102249.00;;;;5030619;28;20917;-50
2022/01/19 01:16:58;;;;;;;3.17;2.83;;;16.50;53.30;17.50;102256.00;;;;5029870;28;20190;-50
2022/01/19 01:19:23;;;;;;;2.80;2.60;;;16.40;53.20;17.50;102253.00;;;;5027724;28;20163;-49
2022/01/19 01:21:49;;;;;;;3.20;2.60;;;16.40;53.40;17.50;102249.00;;;;5028405;28;20687;-49
2022/01/19 01:24:15;;;;;;;2.70;2.50;;;16.40;53.30;17.40;102260.00;;;;5026152;28;20171;-49
2022/01/19 01:26:40;;;;;;;3.00;2.70;;;16.40;53.30;17.40;102258.00;;;;5026582;28;20245;-48
2022/01/19 01:29:06;;;;;;;2.70;2.50;;;16.40;53.50;17.40;102278.00;;;;5027599;28;20541;-50
2022/01/19 01:31:32;;;;;;;2.63;2.43;;;16.30;53.70;17.30;102257.00;;;;5027591;28;20724;-50
2022/01/19 01:33:58;;;;;;;2.60;2.40;;;16.30;53.70;17.30;102243.00;;;;5027216;28;20171;-50
2022/01/19 01:36:24;;;;;;;2.67;2.20;;;16.20;53.70;17.20;102236.00;;;;5027555;28;20186;-48
2022/01/19 01:38:49;;;;;;;2.60;2.40;;;16.20;53.60;17.20;102243.00;;;;5031241;28;20175;-49
2022/01/19 01:41:15;;;;;;;2.53;2.33;;;16.20;53.60;17.20;102228.00;;;;5028523;28;20167;-49
2022/01/19 01:43:42;;;;;;;2.70;2.50;;;16.20;53.70;17.20;102223.00;;;;5028196;28;20167;-49
2022/01/19 01:46:14;;;;;;;2.73;2.40;;;16.20;53.80;17.20;102252.00;;;;5027434;28;20174;-50
2022/01/19 01:48:45;;;;;;;2.63;2.27;;;16.20;53.80;17.20;102253.00;;;;5027777;28;20293;-48
2022/01/19 01:53:56;;;;;;;2.27;2.17;;;16.20;53.90;17.10;102259.00;;;;5046392;28;20201;-50
2022/01/19 01:56:21;;;;;;;2.40;2.10;;;16.10;53.80;17.10;102255.00;;;;5047154;28;20664;-48
2022/01/19 01:58:48;;;;;;;3.10;2.30;;;16.20;53.90;17.10;102268.00;;;;5046318;28;20182;-50
2022/01/19 02:01:14;;;;;;;2.53;2.20;;;16.10;53.90;17.00;102267.00;;;;5047302;28;20166;-49
2022/01/19 02:03:41;;;;;;;2.97;2.20;;;16.10;54.00;17.00;102262.00;;;;5047262;28;20181;-50
2022/01/19 02:09:01;;;;;;;2.37;2.03;;;16.00;54.10;17.00;102239.00;;;;5047320;28;20648;-50
2022/01/19 02:15:48;;;;;;;2.70;2.00;;;16.00;54.00;16.90;102162.00;;;;5045968;28;20190;-48
2022/01/19 02:22:51;;;;;;;2.20;2.00;;;15.90;54.40;16.80;102224.00;;;;5049361;28;20200;-49
2022/01/19 02:25:17;;;;;;;2.07;1.97;;;15.90;54.40;16.70;102200.00;;;;5051012;28;20174;-49
2022/01/19 02:41:33;;;;;;;2.40;2.20;;;15.80;54.60;16.70;102175.00;;;;5049969;28;20174;-49
2022/01/19 02:43:59;;;;;;;2.33;2.13;;;15.80;54.30;16.80;102178.00;;;;5050808;28;20213;-49
2022/01/19 02:46:54;;;;;;;2.30;2.10;;;15.80;54.40;16.70;102166.00;;;;5050466;28;20264;-48
2022/01/19 02:49:23;;;;;;;3.00;1.90;;;15.80;54.40;16.70;102162.00;;;;5051783;28;20174;-50
2022/01/19 02:51:51;;;;;;;2.00;1.90;;;15.70;54.40;16.70;102158.00;;;;5050271;28;20679;-49
2022/01/19 02:54:22;;;;;;;2.07;1.93;;;15.70;54.60;16.70;102145.00;;;;5050604;28;20175;-50
2022/01/19 02:56:53;;;;;;;2.00;1.90;;;15.70;54.70;16.70;102150.00;;;;5050305;28;20348;-49
2022/01/19 02:59:41;;;;;;;2.30;2.10;;;15.70;54.50;16.70;102131.00;;;;5049795;28;20150;-47
2022/01/19 03:10:18;;;;;;;2.10;2.00;;;15.60;54.70;16.60;102111.00;;;;5049946;28;20193;-48
2022/01/19 03:12:44;;;;;;;1.90;1.80;;;15.60;54.70;16.60;102126.00;;;;5049956;28;20194;-49
2022/01/19 03:15:11;;;;;;;1.93;1.83;;;15.50;54.40;16.60;102110.00;;;;5050197;28;20190;-48
2022/01/19 03:17:37;;;;;;;1.80;1.70;;;15.60;54.60;16.70;102108.00;;;;5053381;28;20210;-48
2022/01/19 03:20:04;;;;;;;1.80;1.70;;;15.50;54.80;16.60;102098.00;;;;5068578;28;20178;-50
2022/01/19 03:22:37;;;;;;;2.00;1.90;;;15.50;54.40;16.60;102092.00;;;;5050571;28;20174;-48
2022/01/19 03:25:10;;;;;;;1.80;1.70;;;15.50;54.80;16.60;102077.00;;;;5049556;28;20165;-48
2022/01/19 03:27:36;;;;;;;1.90;1.80;;;15.50;54.80;16.60;102072.00;;;;5048568;28;20202;-49
2022/01/19 03:30:03;;;;;;;1.90;1.80;;;15.50;54.70;16.50;102076.00;;;;5049791;28;20174;-49
2022/01/19 03:32:29;;;;;;;1.90;1.80;;;15.50;54.80;16.50;102070.00;;;;5060737;28;20209;-49
2022/01/19 03:34:54;;;;;;;1.87;1.77;;;15.50;54.70;16.50;102066.00;;;;5062679;28;20170;-50
2022/01/19 03:37:20;;;;;;;2.00;1.90;;;15.50;54.70;16.50;102067.00;;;;5049813;28;20190;-49
2022/01/19 03:39:46;;;;;;;2.10;1.90;;;15.50;54.80;16.50;102078.00;;;;5049517;28;20170;-49
2022/01/19 03:42:11;;;;;;;2.00;1.90;;;15.40;55.00;16.50;102079.00;;;;5049524;28;20193;-49
2022/01/19 03:44:37;;;;;;;2.00;1.90;;;15.40;54.80;16.50;102072.00;;;;5049170;28;20171;-49
2022/01/19 03:47:04;;;;;;;1.90;1.80;;;15.40;54.60;16.50;102075.00;;;;5047370;28;20204;-50
2022/01/19 03:49:33;;;;;;;2.07;1.87;;;15.40;54.60;16.50;102068.00;;;;5051548;28;20178;-49
2022/01/19 03:52:02;;;;;;;1.90;1.80;;;15.40;54.50;16.40;102066.00;;;;5053080;28;20684;-49
2022/01/19 03:54:28;;;;;;;2.00;1.90;;;15.40;54.80;16.40;102055.00;;;;5048560;28;20235;-48
2022/01/19 03:56:54;;;;;;;1.70;1.60;;;15.40;54.70;16.40;102045.00;;;;5049177;28;20210;-48
2022/01/19 03:59:20;;;;;;;1.90;1.80;;;15.40;54.60;16.40;102044.00;;;;5049530;28;20168;-47
2022/01/19 04:01:46;;;;;;;1.73;1.63;;;15.30;54.40;16.40;102032.00;;;;5049454;28;20753;-49
2022/01/19 04:06:54;;;;;;;1.80;1.70;;;15.30;54.40;16.40;102031.00;;;;5049056;28;20206;-49
2022/01/19 04:09:20;;;;;;;2.13;1.93;;;15.30;54.50;16.40;102023.00;;;;5050690;28;20166;-50
2022/01/19 04:11:45;;;;;;;1.83;1.67;;;15.30;54.70;16.40;102025.00;;;;5054092;28;20198;-48
2022/01/19 04:14:24;;;;;;;1.97;1.80;;;15.30;54.40;16.40;102014.00;;;;5050240;28;20228;-47
2022/01/19 04:16:52;;;;;;;1.77;1.67;;;15.30;54.30;16.40;102020.00;;;;5051162;28;20194;-48
2022/01/19 04:21:46;;;;;;;1.70;1.60;;;15.30;54.90;16.30;102018.00;;;;5050921;28;20441;-49
2022/01/19 04:24:12;;;;;;;1.97;1.87;;;15.20;54.90;16.30;102015.00;;;;5049712;28;20174;-47
2022/01/19 04:26:38;;;;;;;2.37;1.90;;;15.20;54.40;16.30;102016.00;;;;5046982;28;20812;-50
2022/01/19 04:29:04;;;;;;;1.80;1.70;;;15.20;54.90;16.30;102021.00;;;;5048448;28;20173;-49
2022/01/19 04:31:29;;;;;;;2.40;1.70;;;15.20;54.60;16.30;102019.00;;;;5048336;28;20603;-49
2022/01/19 04:34:00;;;;;;;4.23;2.00;;;15.30;54.40;16.20;102003.00;;;;5048453;28;20205;-48
2022/01/19 04:39:27;;;;;;;2.10;1.90;;;15.30;54.40;16.30;101998.00;;;;5054218;28;20288;-49
2022/01/19 05:01:38;;;;;;;1.77;1.67;;;15.20;54.40;16.30;102012.00;;;;5048429;28;20238;-48
2022/01/19 05:03:28;;;;;;;2.17;1.70;;;15.20;54.30;16.30;102016.00;;;;5050458;28;20212;-48
2022/01/19 05:06:02;;;;;;;2.00;1.43;;;15.20;54.30;16.20;102001.00;;;;5048137;28;20410;-49
2022/01/19 05:08:47;;;;;;;1.80;1.70;;;15.20;54.40;16.20;101992.00;;;;5047683;28;20212;-49
2022/01/19 05:13:57;;;;;;;1.47;1.37;;;15.20;54.60;16.20;101965.00;;;;5041417;28;20178;-50
2022/01/19 05:16:23;;;;;;;1.60;1.50;;;15.20;54.40;16.20;101963.00;;;;5051135;28;20700;-51
2022/01/19 05:18:49;;;;;;;1.60;1.50;;;15.20;54.60;16.20;101960.00;;;;5031942;28;20182;-50
2022/01/19 05:21:15;;;;;;;1.60;1.50;;;15.20;54.50;16.20;101959.00;;;;5026298;28;20728;-49
2022/01/19 05:23:41;;;;;;;1.43;1.40;;;15.20;54.50;16.20;101961.00;;;;5028652;28;20214;-48
2022/01/19 05:26:07;;;;;;;2.47;1.70;;;15.20;54.90;16.20;101953.00;;;;5029088;28;20273;-49
2022/01/19 05:28:32;;;;;;;1.70;1.60;;;15.10;55.00;16.20;101965.00;;;;5029635;28;20166;-49
2022/01/19 05:30:58;;;;;;;1.67;1.57;;;15.20;54.90;16.20;101970.00;;;;5029149;28;20174;-48
2022/01/19 05:33:24;;;;;;;2.20;1.60;;;15.10;54.80;16.20;101968.00;;;;5027749;28;20229;-49
2022/01/19 05:35:49;;;;;;;1.90;1.60;;;15.10;54.90;16.20;101963.00;;;;5028153;28;20179;-49
2022/01/19 05:38:15;;;;;;;1.60;1.50;;;15.10;55.20;16.20;101950.00;;;;5029381;28;20206;-51
2022/01/19 05:40:41;;;;;;;2.87;1.57;;;15.10;55.10;16.20;101950.00;;;;5030254;28;20242;-50
2022/01/19 05:43:07;;;;;;;3.20;1.53;;;15.10;54.90;16.20;101951.00;;;;5028852;28;20864;-48
2022/01/19 05:45:32;;;;;;;2.80;1.50;;;15.10;55.10;16.10;101953.00;;;;5027374;28;20179;-49
2022/01/19 05:47:58;;;;;;;1.90;1.50;;;15.10;55.10;16.10;101953.00;;;;5027202;28;20567;-49
2022/01/19 05:50:24;;;;;;;1.80;1.60;;;15.10;54.90;16.10;101933.00;;;;5038526;28;20178;-49
2022/01/19 05:52:50;;;;;;;2.70;1.60;;;15.10;54.90;16.10;101892.00;;;;5066029;28;20212;-50
2022/01/19 05:55:16;;;;;;;1.97;1.53;;;15.00;55.10;16.10;101927.00;;;;5049123;28;20166;-47
2022/01/19 05:57:42;;;;;;;1.90;1.40;;;15.00;55.20;16.10;101930.00;;;;5046997;28;20244;-50
2022/01/19 06:00:08;;;;;;;2.03;1.60;;;15.00;55.00;16.10;101930.00;;;;5046444;28;20166;-48
2022/01/19 06:02:35;;;;;;;3.70;1.83;;;15.00;55.10;16.10;101922.00;;;;5050044;28;20598;-49
2022/01/19 06:05:00;;;;;;;1.87;1.60;;;15.00;55.00;16.10;101910.00;;;;5055853;28;20214;-50
2022/01/19 06:07:29;;;;;;;3.47;1.50;;;15.00;55.10;16.10;101908.00;;;;5057447;28;20203;-50
2022/01/19 06:10:02;;;;;;;4.23;1.47;;;15.00;55.40;16.10;101913.00;;;;5053016;28;20241;-49
2022/01/19 06:12:28;;;;;;;2.10;1.60;;;15.00;55.20;16.10;101911.00;;;;5047452;28;20699;-50
2022/01/19 06:14:54;;;;;;;3.40;1.67;;;15.00;55.10;16.00;101917.00;;;;5051317;28;20170;-49
2022/01/19 06:17:20;;;;;;;3.37;1.50;;;15.00;55.20;16.00;101908.00;;;;5051650;28;20194;-50
2022/01/19 06:19:48;;;;;;;2.70;1.50;;;14.90;55.10;16.10;101902.00;;;;5050256;28;20170;-49
2022/01/19 06:22:14;;;;;;;1.50;1.40;;;15.00;55.30;16.10;101900.00;;;;5050915;28;20193;-49
2022/01/19 06:24:40;;;;;;;1.57;1.47;;;14.90;55.10;16.00;101883.00;;;;5051626;28;20186;-50
2022/01/19 06:27:06;;;;;;;1.60;1.50;;;14.90;55.20;16.00;101887.00;;;;5050772;28;20187;-47
2022/01/19 06:29:32;;;;;;;2.27;1.60;;;14.90;55.20;16.00;101877.00;;;;5049272;28;20179;-49
2022/01/19 06:31:58;;;;;;;1.57;1.47;;;14.90;55.10;16.00;101877.00;;;;5050185;28;20235;-48
2022/01/19 06:34:23;;;;;;;2.37;1.50;;;14.90;55.20;16.00;101878.00;;;;5050604;28;20175;-50
2022/01/19 06:36:52;;;;;;;2.17;1.50;;;14.90;55.30;16.00;101882.00;;;;5050526;28;20190;-49
2022/01/19 06:39:19;;;;;;;1.27;1.23;;;14.90;55.20;16.00;101878.00;;;;5050387;28;20679;-46
2022/01/19 06:41:44;;;;;;;1.60;1.50;;;14.90;55.20;16.00;101861.00;;;;5051132;28;20181;-48
2022/01/19 06:44:12;;;;;;;1.53;1.43;;;14.90;55.30;16.00;101859.00;;;;5049346;28;20178;-48
2022/01/19 06:46:37;;;;;;;1.50;1.40;;;14.90;55.20;16.00;101857.00;;;;5050429;28;20218;-48
2022/01/19 06:49:03;;;;;;;1.20;1.20;;;14.90;55.30;16.00;101855.00;;;;5050190;28;20203;-49
2022/01/19 06:51:29;;;;;;;1.20;1.20;;;14.90;55.30;15.90;101849.00;;;;5054375;28;20174;-48
2022/01/19 06:53:54;;;;;;;1.77;1.50;;;14.90;55.30;15.90;101860.00;;;;5069142;28;20629;-49
2022/01/19 06:56:20;;;;;;;1.53;1.40;;;14.80;55.20;15.90;101850.00;;;;5060726;28;20198;-48
2022/01/19 06:58:46;;;;;;;1.60;1.50;;;14.80;55.40;15.70;101848.00;;;;5050477;28;20216;-50
2022/01/19 07:01:12;;;;;;;1.43;1.33;;;14.80;55.30;15.90;101846.00;;;;5048799;28;20174;-50
2022/01/19 07:03:38;;;;;;;1.47;1.37;;;14.80;55.30;15.90;101869.00;;;;5050403;28;20675;-49
2022/01/19 07:06:04;;;;;;;1.37;1.27;;;14.80;55.30;15.90;101860.00;;;;5050003;28;20660;-50
2022/01/19 07:08:29;;;;;;;1.63;1.53;;;14.80;55.40;15.90;101856.00;;;;5049792;28;20174;-49
2022/01/19 07:10:55;;;;;;;1.53;1.43;;;14.80;55.30;15.90;101869.00;;;;5050084;28;20178;-49
2022/01/19 07:13:21;;;;;;;1.50;1.40;;;14.80;55.60;15.80;101857.00;;;;5073298;28;20221;-49
2022/01/19 07:15:47;;;;;;;1.50;1.40;;;14.80;55.50;15.80;101861.00;;;;5074932;28;20192;-50
2022/01/19 07:18:13;;;;;;;2.43;1.60;;;14.80;55.90;15.80;101841.00;;;;5054620;28;20621;-48
2022/01/19 07:20:39;;;;;;;1.40;1.30;;;14.80;55.60;15.80;101853.00;;;;5048449;28;20167;-49
2022/01/19 07:23:04;;;;;;;1.43;1.40;;;14.80;55.60;15.70;101850.00;;;;5050143;28;20181;-48
2022/01/19 07:25:31;;;;;;;1.50;1.40;;;14.70;55.50;15.70;101863.00;;;;5049988;28;20177;-47
2022/01/19 07:27:56;;;;;;;1.23;1.23;;;14.70;55.90;15.70;101849.00;;;;5049478;28;20201;-48
2022/01/19 07:30:24;;;;;;;1.67;1.50;;;14.70;55.80;15.70;101848.00;;;;5049321;28;20433;-49
2022/01/19 07:32:51;;;;;;;1.67;1.57;;;14.70;55.70;15.70;101852.00;;;;5049516;28;20202;-48
2022/01/19 07:35:17;;;;;;;1.50;1.40;;;14.70;56.00;15.60;101842.00;;;;5049512;28;20708;-49
2022/01/19 07:37:43;;;;;;;1.37;1.27;;;14.70;55.80;15.60;101842.00;;;;5050630;28;20186;-49
2022/01/19 07:40:09;;;;;;;1.60;1.50;;;14.70;55.80;15.60;101835.00;;;;5048680;28;20162;-48
2022/01/19 07:42:35;;;;;;;1.40;1.40;;;14.70;55.70;15.70;101836.00;;;;5049867;28;20674;-49
2022/01/19 07:45:01;;;;;;;1.30;1.23;;;14.70;55.60;15.60;101836.00;;;;5049027;28;20174;-48
2022/01/19 07:47:29;;;;;;;1.50;1.40;;;14.70;56.20;15.60;101827.00;;;;5049626;28;20201;-49
2022/01/19 07:49:57;;;;;;;1.60;1.50;;;14.60;55.90;15.50;101831.00;;;;5049173;28;20167;-49
2022/01/19 07:52:23;;;;;;;1.67;1.57;;;14.60;55.80;15.50;101835.00;;;;5049682;28;20256;-50
2022/01/19 07:54:50;;;;;;;1.43;1.33;;;14.60;56.00;15.50;101829.00;;;;5050973;28;20174;-51
2022/01/19 07:57:16;;;;;;;1.40;1.40;;;14.60;56.00;15.50;101830.00;;;;5074573;28;20576;-50
2022/01/19 07:59:42;;;;;;;1.50;1.40;;;14.60;56.00;15.40;101821.00;;;;5055102;28;20549;-48
2022/01/19 08:02:07;;;;;;;1.57;1.30;;;14.50;56.00;15.40;101816.00;;;;5050871;28;20179;-48
2022/01/19 08:04:33;;;;;;;1.60;1.50;;;14.60;55.90;15.40;101815.00;;;;5033539;28;20175;-50
2022/01/19 08:06:59;;;;;;;1.37;1.37;;;14.50;56.00;15.30;101810.00;;;;5051048;28;20202;-49
2022/01/19 08:09:27;;;;;;;1.40;1.30;;;14.50;56.10;15.30;101807.00;;;;5050132;28;20664;-49
2022/01/19 08:11:53;;;;;;;1.70;1.50;;;14.50;56.20;15.30;101802.00;;;;5049447;28;20540;-49
2022/01/19 08:14:18;;;;;;;1.57;1.47;;;14.50;56.40;15.30;101805.00;;;;5049102;28;20177;-49
2022/01/19 08:16:44;;;;;;;1.20;1.20;;;14.50;56.20;15.30;101792.00;;;;5050963;28;20210;-49
2022/01/19 08:19:10;;;;;;;1.60;1.50;;;14.40;56.10;15.30;101800.00;;;;5051489;28;20216;-48
2022/01/19 08:21:35;;;;;;;1.43;1.33;;;14.40;56.10;15.30;101797.00;;;;5049328;28;20223;-50
2022/01/19 08:24:01;;;;;;;1.50;1.40;;;14.40;56.90;15.30;101792.00;;;;5048856;28;20182;-51
2022/01/19 08:26:27;;;;;;;1.30;1.30;;;14.40;56.20;15.30;101799.00;;;;5048409;28;20668;-48
2022/01/19 08:28:53;;;;;;;1.53;1.43;;;14.50;56.20;15.20;101796.00;;;;5047250;28;20181;-51
2022/01/19 08:31:18;;;;;;;1.43;1.33;;;14.40;56.40;15.20;101792.00;;;;5048170;28;20174;-49
2022/01/19 08:33:44;;;;;;;1.53;1.43;;;14.40;56.20;15.20;101790.00;;;;5049087;28;20182;-49
2022/01/19 08:36:10;;;;;;;1.50;1.40;;;14.40;56.40;15.20;101795.00;;;;5048043;28;20660;-48
2022/01/19 08:38:36;;;;;;;1.53;1.43;;;14.40;56.30;15.20;101798.00;;;;5030805;28;20209;-48
2022/01/19 08:41:01;;;;;;;1.70;1.60;;;14.30;56.30;15.20;101795.00;;;;5048069;28;20312;-47
2022/01/19 08:43:27;;;;;;;1.30;1.30;;;14.40;56.20;15.20;101808.00;;;;5049063;28;20175;-48
2022/01/19 08:45:53;;;;;;;1.57;1.47;;;14.30;56.30;15.20;101796.00;;;;5046836;28;20177;-48
2022/01/19 08:48:19;;;;;;;1.40;1.30;;;14.30;56.10;15.20;101802.00;;;;5048417;28;20182;-49
2022/01/19 08:50:45;;;;;;;1.60;1.50;;;14.30;56.20;15.20;101801.00;;;;5047316;28;20300;-52
2022/01/19 08:53:10;;;;;;;1.63;1.53;;;14.40;56.40;15.10;101809.00;;;;5048098;28;20201;-47
2022/01/19 08:55:36;;;;;;;1.43;1.33;;;14.30;56.30;15.10;101817.00;;;;5048108;28;20174;-48
2022/01/19 08:58:03;;;;;;;1.30;1.30;;;14.30;56.30;15.10;101820.00;;;;5048034;28;20626;-48
2022/01/19 09:00:29;;;;;;;1.63;1.53;;;14.30;56.30;15.10;101818.00;;;;5045604;28;20171;-47
2022/01/19 09:02:55;;;;;;;1.60;1.50;;;14.30;56.30;15.10;101818.00;;;;5046508;28;20162;-49
2022/01/19 09:05:20;;;;;;;1.57;1.47;;;14.30;56.30;15.10;101798.00;;;;5046667;28;20549;-48
2022/01/19 09:07:46;;;;;;;1.70;1.60;;;14.30;56.30;15.10;101808.00;;;;5047796;28;20201;-49
2022/01/19 09:10:12;;;;;;;1.70;1.60;;;14.30;56.30;15.10;101805.00;;;;5047536;28;20170;-49
2022/01/19 09:12:38;;;;;;;1.50;1.40;;;14.30;56.30;15.10;101805.00;;;;5046814;28;20229;-50
2022/01/19 09:15:05;;;;;;;1.70;1.60;;;14.30;56.30;15.10;101802.00;;;;5047719;28;20174;-48
2022/01/19 09:17:31;;;;;;;1.67;1.57;;;14.30;56.30;15.00;101798.00;;;;5047682;28;20194;-48
2022/01/19 09:19:57;;;;;;;2.13;1.80;;;14.30;56.30;15.00;101790.00;;;;5047303;28;20205;-50
2022/01/19 09:22:22;;;;;;;1.70;1.60;;;14.30;56.40;15.00;101782.00;;;;5047103;28;20178;-46
2022/01/19 09:24:48;;;;;;;1.63;1.53;;;14.20;56.20;15.00;101777.00;;;;5046564;28;20166;-49
2022/01/19 09:27:15;;;;;;;1.50;1.40;;;14.20;56.30;15.00;101770.00;;;;5046327;28;20739;-50
2022/01/19 09:29:42;;;;;;;1.40;1.37;;;14.20;57.10;15.00;101766.00;;;;5046641;28;20178;-49
2022/01/19 09:32:11;;;;;;;1.70;1.60;;;14.30;56.30;15.00;101756.00;;;;5028266;28;20214;-48
2022/01/19 09:34:39;;;;;;;1.70;1.60;;;14.30;56.40;15.10;101765.00;;;;5027220;28;20147;-49
2022/01/19 09:37:05;;;;;;;1.57;1.47;;;14.30;56.40;15.10;101761.00;;;;5026723;28;20198;-49
2022/01/19 09:39:31;;;;;;;1.63;1.53;;;14.30;56.30;15.10;101763.00;;;;5027320;28;20255;-49
2022/01/19 09:41:56;;;;;;;1.63;1.40;;;14.30;56.30;15.10;101765.00;;;;5027249;28;20183;-49
2022/01/19 09:44:24;;;;;;;1.73;1.63;;;14.30;56.30;15.20;101762.00;;;;5026814;28;20179;-50
2022/01/19 09:46:50;;;;;;;1.60;1.50;;;14.30;56.30;15.20;101761.00;;;;5027278;28;20187;-47
2022/01/19 09:49:17;;;;;;;1.70;1.60;;;14.30;56.10;15.20;101750.00;;;;5035493;28;20171;-49
2022/01/19 09:51:44;;;;;;;1.47;1.43;;;14.30;56.10;15.20;101745.00;;;;5041538;28;20256;-50
2022/01/19 09:54:23;;;;;;;1.50;1.47;;;14.20;56.20;15.20;101745.00;;;;5041714;28;20178;-49
2022/01/19 09:56:49;;;;;;;1.83;1.73;;;14.20;56.20;15.20;101737.00;;;;5027412;28;20205;-48
2022/01/19 09:59:16;;;;;;;1.80;1.70;;;14.20;56.20;15.20;101729.00;;;;5029425;28;20159;-49
2022/01/19 10:02:08;;;;;;;1.97;1.70;;;14.20;56.20;15.20;101728.00;;;;5030252;28;20259;-50
2022/01/19 10:04:37;;;;;;;4.33;1.80;;;14.20;56.20;15.20;101718.00;;;;5025424;28;20658;-49
2022/01/19 10:07:20;;;;;;;2.80;1.80;;;14.10;56.80;15.20;101721.00;;;;5025619;28;20542;-46
2022/01/19 10:10:07;;;;;;;4.40;1.80;;;14.20;57.50;15.20;101720.00;;;;5025830;28;20166;-49
2022/01/19 10:18:20;;;;;;;2.70;1.70;;;15.10;57.00;15.60;101719.00;;;;5026583;28;20233;-48
2022/01/19 10:20:48;;;;;;;3.23;1.83;;;15.40;56.30;15.80;101703.00;;;;5026777;28;20159;-48
2022/01/19 10:23:54;;;;;;;1.60;1.50;;;15.80;55.90;16.00;101705.00;;;;5025441;28;20229;-49
2022/01/19 10:26:25;;;;;;;3.67;1.90;;;16.30;55.30;16.20;101692.00;;;;4983981;28;20207;-49
2022/01/19 10:29:04;;;;;;;2.53;1.60;;;16.50;54.80;16.40;101679.00;;;;4984219;28;20176;-48
2022/01/19 10:31:32;;;;;;;2.50;1.80;;;16.60;54.50;16.50;101691.00;;;;5016026;28;20182;-50
2022/01/19 10:34:15;;;;;;;1.83;1.73;;;16.70;54.20;16.70;101682.00;;;;5028747;28;20178;-48
2022/01/19 10:36:49;;;;;;;2.07;1.70;;;16.90;54.20;16.80;101691.00;;;;5027994;28;20195;-50
2022/01/19 10:39:16;;;;;;;1.80;1.60;;;16.90;54.20;16.90;101676.00;;;;5054686;28;20147;-52
2022/01/19 10:42:05;;;;;;;3.67;1.70;;;17.00;54.00;17.10;101668.00;;;;5052310;28;20167;-51
2022/01/19 10:44:33;;;;;;;1.60;1.50;;;17.10;53.90;17.10;101654.00;;;;5027209;28;20163;-49
2022/01/19 10:46:59;;;;;;;2.83;1.60;;;17.20;54.00;17.20;101663.00;;;;5027467;28;20237;-52
2022/01/19 10:49:25;;;;;;;2.10;1.70;;;17.30;53.90;17.30;101656.00;;;;5026802;28;20179;-47
2022/01/19 10:51:56;;;;;;;2.93;1.80;;;17.40;53.90;17.40;101648.00;;;;5025769;28;20225;-49
2022/01/19 10:54:25;;;;;;;1.80;1.70;;;17.40;53.90;17.50;101638.00;;;;5025976;28;20167;-50
2022/01/19 10:56:58;;;;;;;2.70;1.50;;;17.50;53.80;17.60;101640.00;;;;5028623;28;20206;-47
2022/01/19 10:59:29;;;;;;;1.77;1.50;;;17.50;53.90;17.60;101644.00;;;;5030537;28;20190;-50
2022/01/19 11:01:58;;;;;;;1.77;1.67;;;17.50;54.00;17.70;101637.00;;;;5029436;28;20205;-49
2022/01/19 11:04:28;;;;;;;3.00;1.60;;;17.60;54.00;17.80;101630.00;;;;5029873;28;20317;-47
2022/01/19 11:07:05;;;;;;;2.20;1.57;;;17.60;54.00;17.80;101635.00;;;;5030346;28;20575;-49
2022/01/19 11:09:34;;;;;;;1.60;1.50;;;17.70;54.10;17.90;101627.00;;;;5030381;28;20248;-49
2022/01/19 11:12:08;;;;;;;2.90;1.57;;;17.70;54.20;17.90;101627.00;;;;5030061;28;20724;-48
2022/01/19 11:14:35;;;;;;;3.83;1.70;;;17.70;54.20;17.90;101616.00;;;;5029116;28;20204;-48
2022/01/19 11:17:02;;;;;;;3.77;1.90;;;17.70;54.30;18.00;101608.00;;;;5034111;28;20195;-49
2022/01/19 11:19:28;;;;;;;3.20;1.80;;;17.60;54.40;18.00;101603.00;;;;5029715;28;20175;-53
2022/01/19 11:22:18;;;;;;;4.27;1.80;;;17.60;54.60;18.00;101612.00;;;;5030013;28;20183;-50
2022/01/19 11:25:11;;;;;;;3.07;2.00;;;17.60;54.80;18.00;101597.00;;;;5029840;28;20172;-50
2022/01/19 11:27:41;;;;;;;5.97;1.83;;;17.60;54.80;18.00;101583.00;;;;5029665;28;20366;-48
2022/01/19 11:30:29;;;;;;;5.37;1.80;;;17.50;54.80;18.00;101595.00;;;;5028793;28;20357;-49
2022/01/19 11:33:24;;;;;;;4.23;1.90;;;17.50;54.90;18.00;101588.00;;;;5025978;28;20211;-48
2022/01/19 11:35:51;;;;;;;3.53;1.90;;;17.40;54.90;18.00;101583.00;;;;5011974;28;20176;-48
2022/01/19 11:38:31;;;;;;;4.67;2.00;;;17.40;55.10;17.90;101570.00;;;;5011511;28;20291;-48
2022/01/19 11:40:58;;;;;;;2.00;1.73;;;17.30;55.20;17.90;101570.00;;;;5011153;28;20186;-49
2022/01/19 11:43:29;;;;;;;6.70;1.83;;;17.30;55.40;17.90;101568.00;;;;5029750;28;20178;-50
2022/01/19 11:45:56;;;;;;;3.50;2.00;;;17.20;55.70;17.90;101567.00;;;;5022000;28;20152;-50
2022/01/19 11:48:28;;;;;;;2.63;2.00;;;17.20;56.00;17.90;101561.00;;;;5028414;28;20799;-48
2022/01/19 11:51:22;;;;;;;4.33;2.00;;;17.20;56.10;17.90;101560.00;;;;5029159;28;20179;-50
2022/01/19 11:54:05;;;;;;;3.17;2.07;;;17.20;56.20;17.80;101551.00;;;;5013157;28;20207;-50
2022/01/19 11:56:30;;;;;;;2.33;1.80;;;17.10;56.50;17.70;101542.00;;;;5012069;28;20870;-50
2022/01/19 11:59:08;;;;;;;3.63;2.10;;;17.10;56.90;17.80;101538.00;;;;5039372;28;20178;-49
2022/01/19 12:01:34;;;;;;;3.00;1.90;;;17.00;56.70;17.80;101537.00;;;;5050504;28;20174;-49
2022/01/19 12:04:20;;;;;;;1.87;1.70;;;17.00;56.70;17.80;101532.00;;;;5050415;28;20484;-48
2022/01/19 12:06:47;;;;;;;4.03;2.37;;;17.00;56.60;17.70;101525.00;;;;5049465;28;20197;-49